Time;durP1;ratioP1;P1;durP2;ratioP2;P2;SDS_P1;SDS_P2;PMS_P1;PMS_P2;Temp;Humidity;BMP_temperature;BMP_pressure;BME280_temperature;BME280_humidity;BME280_pressure;Samples;Min_cycle;Max_cycle;Signal;HPM_P1;HPM_P2
2021/04/09 00:01:27;;;;;;;0.30;0.30;;;;;;;-2.35;65.71;94222.97;5069682;28;20020;-60
2021/04/09 00:03:55;;;;;;;1.10;0.68;;;;;;;-2.23;65.70;94222.06;5070309;28;20041;-61
2021/04/09 00:06:20;;;;;;;0.45;0.45;;;;;;;-2.31;65.15;94204.63;5070664;28;20032;-60
2021/04/09 00:08:46;;;;;;;1.13;0.93;;;;;;;-2.16;65.43;94234.56;5070484;28;20028;-60
2021/04/09 00:11:12;;;;;;;2.30;2.05;;;;;;;-2.16;65.24;94227.19;5080174;28;20085;-60
2021/04/09 00:13:37;;;;;;;1.38;1.25;;;;;;;-2.25;65.49;94232.59;5090511;28;20035;-60
2021/04/09 00:16:03;;;;;;;0.85;0.85;;;;;;;-2.25;66.14;94229.16;5090496;28;20308;-54
2021/04/09 00:18:28;;;;;;;1.50;1.42;;;;;;;-2.23;66.07;94232.16;5090405;28;20031;-51
2021/04/09 00:20:54;;;;;;;1.42;1.30;;;;;;;-2.46;66.66;94220.69;5090789;28;20020;-53
2021/04/09 00:23:19;;;;;;;0.85;0.85;;;;;;;-2.43;66.31;94222.50;5090118;28;20020;-52
2021/04/09 00:25:45;;;;;;;0.73;0.73;;;;;;;-2.34;67.10;94230.63;5088776;28;20026;-55
2021/04/09 00:28:10;;;;;;;0.30;0.30;;;;;;;-2.36;65.54;94232.28;5069784;28;20062;-54
2021/04/09 00:30:36;;;;;;;0.38;0.38;;;;;;;-2.28;65.24;94225.38;5069739;28;20146;-53
2021/04/09 00:33:01;;;;;;;0.63;0.63;;;;;;;-2.11;64.93;94220.44;5069847;28;20034;-55
2021/04/09 00:35:26;;;;;;;1.80;1.70;;;;;;;-2.26;66.39;94217.56;5070064;28;20409;-55
2021/04/09 00:37:52;;;;;;;0.73;0.73;;;;;;;-2.37;65.82;94222.66;5069496;28;20673;-56
2021/04/09 00:40:17;;;;;;;0.30;0.30;;;;;;;-2.41;66.55;94219.34;5069417;28;20025;-54
2021/04/09 00:42:43;;;;;;;0.20;0.20;;;;;;;-2.30;65.77;94214.25;5069977;28;20046;-55
2021/04/09 00:45:10;;;;;;;0.45;0.45;;;;;;;-2.28;65.79;94219.22;5069642;28;20024;-55
2021/04/09 00:47:35;;;;;;;0.70;0.70;;;;;;;-2.45;67.04;94216.75;5069822;28;20035;-55
2021/04/09 00:50:02;;;;;;;1.42;1.40;;;;;;;-2.25;65.75;94216.38;5069984;28;20024;-57
2021/04/09 00:52:30;;;;;;;0.45;0.45;;;;;;;-2.23;65.94;94222.06;5069848;28;20028;-58
2021/04/09 00:54:56;;;;;;;0.98;0.95;;;;;;;-2.27;66.26;94216.06;5069474;28;20515;-56
2021/04/09 00:57:22;;;;;;;1.80;0.85;;;;;;;-2.21;66.05;94227.06;5068350;28;20052;-55
2021/04/09 00:59:47;;;;;;;0.75;0.75;;;;;;;-2.16;66.17;94224.50;5068251;28;20024;-57
2021/04/09 01:02:13;;;;;;;0.85;0.85;;;;;;;-2.05;66.24;94232.94;5069326;28;20094;-63
2021/04/09 01:04:38;;;;;;;0.70;0.70;;;;;;;-2.07;66.13;94229.94;5068596;28;20484;-63
2021/04/09 01:07:04;;;;;;;1.08;1.08;;;;;;;-2.10;66.01;94224.69;5077384;28;20158;-63
2021/04/09 01:09:30;;;;;;;1.05;1.02;;;;;;;-2.20;66.55;94226.59;5089526;28;20077;-60
2021/04/09 01:11:55;;;;;;;0.30;0.30;;;;;;;-2.10;65.99;94230.81;5089493;28;20016;-60
2021/04/09 01:14:21;;;;;;;0.30;0.30;;;;;;;-2.17;66.13;94225.72;5089800;28;20095;-61
2021/04/09 01:17:26;;;;;;;3.50;1.75;;;;;;;-2.19;66.64;94230.06;5089458;28;20561;-61
2021/04/09 01:20:26;;;;;;;0.30;0.30;;;;;;;-2.27;66.95;94226.16;5089245;28;20475;-60
2021/04/09 01:23:31;;;;;;;0.43;0.43;;;;;;;-2.25;66.76;94226.44;5072970;28;20051;-60
2021/04/09 01:26:27;;;;;;;0.57;0.57;;;;;;;-2.43;67.25;94225.22;5076512;28;20042;-60
2021/04/09 01:29:37;;;;;;;0.30;0.30;;;;;;;-2.31;67.04;94221.63;5091005;28;20020;-61
2021/04/09 01:32:04;;;;;;;0.70;0.70;;;;;;;-2.29;66.84;94226.56;5075215;28;20020;-61
2021/04/09 01:34:32;;;;;;;0.28;0.28;;;;;;;-2.20;66.62;94231.25;5072246;28;20028;-61
2021/04/09 01:37:02;;;;;;;0.30;0.30;;;;;;;-2.12;66.25;94230.50;5074694;28;20074;-61
2021/04/09 01:39:30;;;;;;;0.45;0.45;;;;;;;-2.38;67.28;94226.53;5071843;28;20032;-61
2021/04/09 01:41:56;;;;;;;0.40;0.40;;;;;;;-2.46;67.24;94212.56;5073193;28;20650;-62
2021/04/09 01:44:24;;;;;;;1.13;1.13;;;;;;;-2.61;67.48;94235.19;5072752;28;20516;-62
2021/04/09 01:46:50;;;;;;;0.30;0.30;;;;;;;-2.57;68.51;94238.50;5073314;28;20016;-62
2021/04/09 01:49:16;;;;;;;0.60;0.60;;;;;;;-2.53;67.79;94236.41;5079585;28;20024;-62
2021/04/09 01:51:44;;;;;;;0.40;0.40;;;;;;;-2.68;67.67;94233.50;5082380;28;20028;-57
2021/04/09 01:54:10;;;;;;;1.40;0.45;;;;;;;-2.78;68.62;94231.97;5080111;28;20024;-60
2021/04/09 01:56:37;;;;;;;1.05;0.95;;;;;;;-2.89;68.84;94226.22;5082734;28;20028;-59
2021/04/09 01:59:04;;;;;;;0.30;0.30;;;;;;;-2.60;68.65;94234.72;5082883;28;20444;-58
2021/04/09 02:01:29;;;;;;;0.35;0.35;;;;;;;-2.45;67.69;94243.78;5062874;28;20062;-59
2021/04/09 02:03:55;;;;;;;0.68;0.68;;;;;;;-2.38;67.38;94246.22;5082172;28;20032;-58
2021/04/09 02:06:21;;;;;;;0.47;0.47;;;;;;;-2.39;67.95;94243.97;5082353;28;20062;-57
2021/04/09 02:08:47;;;;;;;0.40;0.40;;;;;;;-2.52;67.79;94254.91;5082456;28;20077;-59
2021/04/09 02:11:13;;;;;;;1.05;1.05;;;;;;;-2.46;68.08;94250.41;5082486;28;20493;-58
2021/04/09 02:13:38;;;;;;;1.50;1.48;;;;;;;-2.49;67.75;94248.59;5089118;28;20016;-60
2021/04/09 02:16:04;;;;;;;0.93;0.93;;;;;;;-2.50;68.63;94249.06;5092014;28;20023;-60
2021/04/09 02:18:30;;;;;;;1.10;1.10;;;;;;;-2.52;68.20;94249.50;5079311;28;20020;-60
2021/04/09 02:20:59;;;;;;;0.90;0.90;;;;;;;-2.50;68.46;94252.50;5091246;28;20023;-60
2021/04/09 02:23:25;;;;;;;0.73;0.73;;;;;;;-2.59;68.57;94249.00;5091642;28;20077;-60
2021/04/09 02:25:50;;;;;;;3.22;2.30;;;;;;;-2.70;68.71;94249.41;5090520;28;20484;-60
2021/04/09 02:28:16;;;;;;;0.22;0.22;;;;;;;-2.67;68.64;94256.66;5089809;28;20016;-60
2021/04/09 02:30:42;;;;;;;0.98;0.98;;;;;;;-2.91;68.86;94261.03;5082739;28;20020;-60
2021/04/09 02:33:07;;;;;;;0.43;0.43;;;;;;;-2.87;69.11;94255.50;5090230;28;20077;-60
2021/04/09 02:35:33;;;;;;;0.73;0.73;;;;;;;-2.97;69.32;94265.50;5090825;28;20496;-60
2021/04/09 02:37:59;;;;;;;0.30;0.30;;;;;;;-2.92;69.37;94262.22;5091245;28;20030;-60
2021/04/09 02:40:28;;;;;;;0.60;0.60;;;;;;;-2.99;69.68;94259.81;5081666;28;20155;-59
2021/04/09 02:42:53;;;;;;;;;;;;;;;-2.91;69.00;94269.13;5089478;28;20020;-60
2021/04/09 02:45:20;;;;;;;0.20;0.20;;;;;;;-2.90;69.62;94273.34;5081359;28;19931;-59
2021/04/09 02:47:47;;;;;;;1.95;1.85;;;;;;;-2.90;69.73;94272.59;5081424;28;20044;-60
2021/04/09 02:50:14;;;;;;;0.73;0.73;;;;;;;-2.87;68.94;94272.47;5081578;28;20135;-59
2021/04/09 02:52:45;;;;;;;1.17;0.63;;;;;;;-2.92;68.83;94278.44;5082200;28;20024;-60
2021/04/09 02:55:14;;;;;;;0.63;0.63;;;;;;;-2.88;69.07;94278.31;5072097;28;20036;-60
2021/04/09 02:57:40;;;;;;;0.93;0.93;;;;;;;-2.94;69.34;94280.81;5071065;28;20020;-60
2021/04/09 03:00:07;;;;;;;0.80;0.80;;;;;;;-2.88;69.02;94286.41;5082795;28;20098;-59
2021/04/09 03:02:33;;;;;;;0.60;0.60;;;;;;;-2.82;68.93;94288.09;5090005;28;20052;-59
2021/04/09 03:04:59;;;;;;;4.53;1.65;;;;;;;-2.96;69.34;94287.84;5090577;28;20024;-59
2021/04/09 03:07:25;;;;;;;2.03;1.95;;;;;;;-2.86;69.13;94292.91;5090839;28;20095;-59
2021/04/09 03:09:50;;;;;;;1.60;1.50;;;;;;;-2.84;68.53;94282.41;5091722;28;20020;-60
2021/04/09 03:12:18;;;;;;;1.77;1.67;;;;;;;-2.80;69.17;94290.34;5091966;28;20020;-60
2021/04/09 03:14:45;;;;;;;0.45;0.45;;;;;;;-2.83;68.36;94281.19;5091704;28;20031;-60
2021/04/09 03:17:19;;;;;;;2.55;1.25;;;;;;;-2.68;68.00;94284.09;5091581;28;20519;-60
2021/04/09 03:19:44;;;;;;;4.22;3.67;;;;;;;-2.85;68.22;94272.78;5090596;28;20077;-62
2021/04/09 03:22:11;;;;;;;1.08;1.08;;;;;;;-2.86;68.63;94287.50;5091764;28;20024;-62
2021/04/09 03:24:37;;;;;;;2.17;2.08;;;;;;;-2.85;68.84;94290.94;5091246;28;20032;-60
2021/04/09 03:27:04;;;;;;;0.60;0.60;;;;;;;-3.17;68.86;94292.09;5091702;28;20031;-60
2021/04/09 03:29:29;;;;;;;1.10;1.10;;;;;;;-3.39;69.66;94305.59;5090596;28;20511;-60
2021/04/09 03:31:55;;;;;;;0.20;0.20;;;;;;;-3.40;69.95;94306.03;5091245;28;20017;-60
2021/04/09 03:34:20;;;;;;;0.90;0.90;;;;;;;-3.23;69.42;94301.97;5091319;28;20083;-60
2021/04/09 03:36:46;;;;;;;0.30;0.30;;;;;;;-3.24;69.31;94300.44;5084037;28;20463;-60
2021/04/09 03:39:11;;;;;;;1.30;1.30;;;;;;;-3.24;70.04;94309.28;5091257;28;20031;-60
2021/04/09 03:41:36;;;;;;;4.78;1.75;;;;;;;-3.55;69.56;94321.94;5091006;28;20016;-60
2021/04/09 03:44:02;;;;;;;0.63;0.63;;;;;;;-3.44;69.43;94322.34;5081250;28;20043;-61
2021/04/09 03:46:27;;;;;;;1.45;1.45;;;;;;;-3.38;69.02;94331.38;5090966;28;20503;-61
2021/04/09 03:48:53;;;;;;;2.75;2.28;;;;;;;-3.40;69.93;94341.13;5090887;28;20022;-60
2021/04/09 03:51:18;;;;;;;0.68;0.68;;;;;;;-3.36;70.20;94336.34;5090425;28;20026;-59
2021/04/09 03:53:43;;;;;;;0.95;0.95;;;;;;;-3.29;69.15;94334.16;5081103;28;20052;-59
2021/04/09 03:56:09;;;;;;;0.55;0.55;;;;;;;-3.30;69.63;94332.66;5090210;28;20115;-59
2021/04/09 03:58:34;;;;;;;0.75;0.75;;;;;;;-3.22;69.36;94341.25;5090592;28;20012;-58
2021/04/09 04:01:00;;;;;;;0.75;0.75;;;;;;;-3.16;70.02;94342.19;5090513;28;20016;-59
2021/04/09 04:03:25;;;;;;;0.65;0.65;;;;;;;-3.18;69.35;94337.25;5090252;28;20044;-59
2021/04/09 04:05:50;;;;;;;0.77;0.77;;;;;;;-3.07;69.79;94347.66;5087810;28;20549;-60
2021/04/09 04:08:16;;;;;;;1.83;1.73;;;;;;;-2.94;69.20;94353.75;5090303;28;20448;-59
2021/04/09 04:10:41;;;;;;;1.48;1.30;;;;;;;-2.85;69.36;94350.38;5090792;28;20035;-59
2021/04/09 04:13:06;;;;;;;1.73;1.65;;;;;;;-2.87;69.22;94344.66;5090851;28;20110;-57
2021/04/09 04:15:32;;;;;;;0.30;0.30;;;;;;;-2.60;68.60;94350.25;5090802;28;20048;-59
2021/04/09 04:17:57;;;;;;;1.20;1.20;;;;;;;-2.89;69.61;94347.81;5090432;28;20511;-59
2021/04/09 04:20:23;;;;;;;2.40;2.28;;;;;;;-2.76;69.97;94353.13;5090420;28;20016;-59
2021/04/09 04:22:48;;;;;;;2.15;1.92;;;;;;;-2.81;70.08;94359.84;5090520;28;20031;-59
2021/04/09 04:25:13;;;;;;;6.53;2.60;;;;;;;-2.74;70.30;94356.16;5090204;28;20411;-59
2021/04/09 04:27:39;;;;;;;0.65;0.65;;;;;;;-2.81;69.31;94356.41;5089948;28;20058;-59
2021/04/09 04:30:05;;;;;;;0.85;0.85;;;;;;;-2.88;69.33;94354.69;5077464;28;20020;-59
2021/04/09 04:32:31;;;;;;;3.05;0.57;;;;;;;-2.66;69.61;94358.16;5070145;28;20020;-59
2021/04/09 04:34:56;;;;;;;2.97;1.77;;;;;;;-2.31;68.35;94364.19;5069772;28;20025;-60
2021/04/09 04:37:22;;;;;;;0.35;0.35;;;;;;;-2.13;68.44;94368.94;5069815;28;20020;-59
2021/04/09 04:39:47;;;;;;;0.40;0.40;;;;;;;-1.90;68.40;94369.16;5069934;28;20077;-60
2021/04/09 04:42:13;;;;;;;2.58;1.60;;;;;;;-1.60;67.64;94371.06;5069679;28;20039;-60
2021/04/09 04:44:38;;;;;;;7.65;4.45;;;;;;;-1.34;66.83;94362.69;5069998;28;20028;-59
2021/04/09 04:47:04;;;;;;;11.25;4.90;;;;;;;-1.10;65.79;94369.00;5069802;28;20024;-60
2021/04/09 04:49:30;;;;;;;5.90;5.40;;;;;;;-1.00;64.84;94365.88;5069848;28;20153;-59
2021/04/09 04:51:55;;;;;;;6.57;6.00;;;;;;;-0.77;64.91;94370.66;5076561;28;20024;-59
2021/04/09 04:54:20;;;;;;;4.40;4.07;;;;;;;-0.64;64.47;94373.22;5089760;28;20557;-60
2021/04/09 04:56:46;;;;;;;3.97;3.60;;;;;;;-0.49;63.10;94368.66;5089439;28;20023;-60
2021/04/09 04:59:12;;;;;;;7.50;5.30;;;;;;;-0.30;62.99;94375.56;5090070;28;20016;-60
2021/04/09 05:01:37;;;;;;;3.35;3.15;;;;;;;-0.15;62.15;94364.78;5089900;28;20097;-60
2021/04/09 05:04:03;;;;;;;1.75;1.48;;;;;;;0.10;60.96;94377.25;5089565;28;20032;-62
2021/04/09 05:06:28;;;;;;;4.30;3.92;;;;;;;0.20;61.06;94375.97;5089712;28;20617;-65
2021/04/09 05:08:53;;;;;;;4.38;4.00;;;;;;;0.29;60.56;94386.81;5089837;28;20023;-64
2021/04/09 05:11:19;;;;;;;3.35;3.20;;;;;;;0.41;60.34;94381.16;5089628;28;20070;-61
2021/04/09 05:13:45;;;;;;;5.00;1.52;;;;;;;0.50;59.76;94383.06;5088285;28;20082;-61
2021/04/09 05:16:10;;;;;;;2.67;1.98;;;;;;;0.57;59.54;94391.66;5089539;28;20020;-61
2021/04/09 05:18:35;;;;;;;5.40;3.60;;;;;;;0.68;59.64;94388.41;5089975;28;20020;-62
2021/04/09 05:21:01;;;;;;;5.68;3.03;;;;;;;0.66;60.23;94380.72;5089868;28;20089;-62
2021/04/09 05:23:26;;;;;;;1.77;1.67;;;;;;;0.65;61.26;94386.63;5089770;28;20468;-59
2021/04/09 05:25:52;;;;;;;1.52;1.48;;;;;;;0.65;60.99;94373.78;5087434;28;20447;-59
2021/04/09 05:28:17;;;;;;;3.33;2.92;;;;;;;0.69;60.99;94382.50;5069230;28;20493;-59
2021/04/09 05:30:42;;;;;;;6.05;1.88;;;;;;;0.77;59.68;94389.13;5068963;28;20024;-59
2021/04/09 05:33:08;;;;;;;6.18;5.72;;;;;;;0.85;58.90;94391.47;5069297;28;20028;-59
2021/04/09 05:35:34;;;;;;;1.55;1.45;;;;;;;0.85;56.62;94389.50;5073284;28;20119;-59
2021/04/09 05:37:59;;;;;;;0.32;0.32;;;;;;;1.49;56.80;94389.78;5089313;28;20028;-59
2021/04/09 05:40:25;;;;;;;0.35;0.35;;;;;;;1.77;56.28;94395.72;5089678;28;20039;-59
2021/04/09 05:42:58;;;;;;;0.30;0.30;;;;;;;2.17;54.61;94404.03;5089335;28;20418;-59
2021/04/09 05:45:25;;;;;;;1.50;1.42;;;;;;;2.09;54.25;94406.41;5089480;28;20055;-60
2021/04/09 05:47:50;;;;;;;3.33;3.03;;;;;;;2.10;55.64;94407.91;5088480;28;20020;-59
2021/04/09 05:50:15;;;;;;;0.68;0.68;;;;;;;2.33;55.50;94405.53;5089642;28;20077;-59
2021/04/09 05:52:41;;;;;;;0.32;0.32;;;;;;;2.48;53.80;94398.84;5089301;28;20385;-60
2021/04/09 05:55:08;;;;;;;0.40;0.40;;;;;;;2.71;53.58;94406.09;5089597;28;20032;-59
2021/04/09 05:57:34;;;;;;;0.40;0.40;;;;;;;2.99;53.89;94409.97;5089375;28;20032;-59
2021/04/09 06:00:00;;;;;;;0.85;0.63;;;;;;;3.26;54.67;94410.78;5088517;28;20536;-60
2021/04/09 06:02:25;;;;;;;1.23;0.63;;;;;;;3.57;52.80;94408.91;5088621;28;20133;-60
2021/04/09 06:04:51;;;;;;;0.35;0.35;;;;;;;4.03;52.34;94408.88;5088195;28;20012;-60
2021/04/09 06:07:16;;;;;;;0.73;0.73;;;;;;;4.28;50.34;94410.84;5090223;28;20432;-59
2021/04/09 06:09:41;;;;;;;1.10;1.08;;;;;;;4.77;49.05;94408.94;5093629;28;20485;-56
2021/04/09 06:12:07;;;;;;;0.90;0.90;;;;;;;5.63;47.54;94402.91;5091675;28;20680;-54
2021/04/09 06:14:33;;;;;;;0.50;0.50;;;;;;;6.44;45.27;94397.31;5092471;28;20500;-55
2021/04/09 06:17:00;;;;;;;0.55;0.55;;;;;;;6.62;42.39;94405.81;5092307;28;20020;-53
2021/04/09 06:19:26;;;;;;;1.05;1.05;;;;;;;6.58;40.20;94407.31;5092199;28;20027;-53
2021/04/09 06:21:51;;;;;;;1.55;1.45;;;;;;;7.23;39.91;94396.72;5092366;28;20023;-54
2021/04/09 06:24:16;;;;;;;1.10;1.08;;;;;;;8.37;38.36;94409.66;5092350;28;20016;-55
2021/04/09 06:26:42;;;;;;;5.53;2.25;;;;;;;9.66;35.02;94402.41;5089528;28;20365;-54
2021/04/09 06:29:07;;;;;;;1.40;1.17;;;;;;;10.70;34.01;94391.16;5082726;28;20535;-54
2021/04/09 06:31:33;;;;;;;0.32;0.22;;;;;;;11.07;31.07;94399.34;5091648;28;20016;-54
2021/04/09 06:33:58;;;;;;;0.57;0.57;;;;;;;11.46;30.34;94400.66;5091910;28;20047;-54
2021/04/09 06:36:24;;;;;;;0.30;0.30;;;;;;;11.07;29.48;94406.88;5091959;28;20404;-56
2021/04/09 06:38:50;;;;;;;0.40;0.40;;;;;;;11.01;29.37;94403.47;5091908;28;20701;-55
2021/04/09 06:41:17;;;;;;;1.42;0.82;;;;;;;11.05;30.15;94409.41;5092110;28;20016;-51
2021/04/09 06:43:42;;;;;;;2.38;2.20;;;;;;;11.05;29.75;94414.94;5091906;28;20404;-55
2021/04/09 06:46:08;;;;;;;1.30;1.20;;;;;;;11.44;28.99;94418.50;5081888;28;20033;-52
2021/04/09 06:48:35;;;;;;;1.38;1.15;;;;;;;11.97;29.13;94419.28;5091653;28;20028;-58
2021/04/09 06:51:01;;;;;;;1.75;1.15;;;;;;;12.11;28.52;94431.81;5091884;28;20408;-51
2021/04/09 06:53:27;;;;;;;0.93;0.82;;;;;;;12.71;27.03;94406.06;5091550;28;20055;-58
2021/04/09 06:55:53;;;;;;;0.20;0.20;;;;;;;12.33;26.56;94429.84;5082262;28;20019;-57
2021/04/09 06:58:20;;;;;;;0.40;0.40;;;;;;;12.48;28.38;94441.84;5091967;28;20028;-55
2021/04/09 07:00:51;;;;;;;0.30;0.30;;;;;;;12.62;26.54;94439.78;5092168;28;20106;-56
2021/04/09 07:03:17;;;;;;;0.30;0.30;;;;;;;11.89;26.30;94443.31;5090504;28;20524;-50
2021/04/09 07:05:42;;;;;;;1.85;0.73;;;;;;;11.34;27.70;94455.41;5089397;28;20115;-50
2021/04/09 07:08:08;;;;;;;0.43;0.43;;;;;;;11.65;27.67;94451.09;5089902;28;20530;-52
2021/04/09 07:10:33;;;;;;;0.50;0.50;;;;;;;12.24;27.62;94444.13;5090345;28;20028;-50
2021/04/09 07:13:07;;;;;;;1.02;0.63;;;;;;;13.16;25.36;94450.84;5089771;28;20795;-56
2021/04/09 07:15:41;;;;;;;0.20;0.20;;;;;;;13.87;25.67;94447.47;5089446;28;20024;-51
2021/04/09 07:18:07;;;;;;;0.20;0.20;;;;;;;15.21;23.32;94461.69;5089311;28;20058;-49
2021/04/09 07:20:34;;;;;;;0.63;0.63;;;;;;;15.07;22.39;94460.38;5087497;28;20036;-54
2021/04/09 07:23:00;;;;;;;0.52;0.52;;;;;;;14.70;22.32;94456.22;5089281;28;20389;-54
2021/04/09 07:25:31;;;;;;;0.50;0.40;;;;;;;14.86;22.62;94454.94;5089161;28;20031;-55
2021/04/09 07:28:12;;;;;;;0.30;0.30;;;;;;;15.33;21.46;94471.16;5089493;28;20048;-54
2021/04/09 07:30:42;;;;;;;0.65;0.65;;;;;;;15.53;22.26;94470.25;5071635;28;20051;-52
2021/04/09 07:33:09;;;;;;;0.20;0.20;;;;;;;16.46;20.44;94465.44;5074859;28;20040;-54
2021/04/09 07:36:00;;;;;;;0.20;0.20;;;;;;;16.73;19.79;94470.56;5075229;28;20025;-54
2021/04/09 07:38:34;;;;;;;0.30;0.30;;;;;;;15.69;21.68;94468.97;5069034;28;20485;-51
2021/04/09 07:41:09;;;;;;;0.57;0.57;;;;;;;16.99;21.18;94456.88;5080189;28;20052;-49
2021/04/09 07:43:39;;;;;;;0.30;0.30;;;;;;;16.93;19.23;94461.94;5088633;28;20024;-50
2021/04/09 07:46:05;;;;;;;1.25;0.50;;;;;;;17.21;20.31;94467.16;5088483;28;20023;-50
2021/04/09 07:48:36;;;;;;;0.45;0.45;;;;;;;17.65;18.44;94463.88;5088879;28;20398;-49
2021/04/09 07:51:03;;;;;;;2.05;1.85;;;;;;;17.48;18.89;94464.53;5088477;28;20028;-51
2021/04/09 07:53:31;;;;;;;0.32;0.32;;;;;;;18.02;18.51;94468.38;5088494;28;20031;-51
2021/04/09 07:56:09;;;;;;;3.20;0.90;;;;;;;17.48;19.13;94472.19;5088963;28;20673;-49
2021/04/09 07:58:36;;;;;;;0.85;0.85;;;;;;;18.35;18.93;94468.97;5079118;28;20024;-49
2021/04/09 08:01:03;;;;;;;0.45;0.43;;;;;;;18.36;19.60;94462.81;5088667;28;20034;-56
2021/04/09 08:03:32;;;;;;;0.43;0.40;;;;;;;19.87;17.74;94471.97;5088446;28;20040;-54
2021/04/09 08:06:08;;;;;;;0.60;0.60;;;;;;;20.16;17.57;94441.19;5087887;28;20032;-49
2021/04/09 08:08:35;;;;;;;0.70;0.47;;;;;;;20.57;17.64;94459.72;5087844;28;20043;-51
2021/04/09 08:11:32;;;;;;;0.28;0.28;;;;;;;20.00;17.13;94474.38;5088048;28;20047;-51
2021/04/09 08:14:08;;;;;;;0.10;0.10;;;;;;;18.26;17.55;94473.16;5088301;28;20039;-52
2021/04/09 08:16:36;;;;;;;0.50;0.50;;;;;;;17.42;20.61;94478.72;5088544;28;20420;-52
2021/04/09 08:19:02;;;;;;;0.40;0.40;;;;;;;17.71;18.89;94490.28;5088407;28;20035;-50
2021/04/09 08:21:30;;;;;;;0.20;0.20;;;;;;;16.68;19.11;94492.53;5083733;28;20036;-51
2021/04/09 08:23:56;;;;;;;0.10;0.10;;;;;;;16.58;20.07;94483.28;5083615;28;20012;-53
2021/04/09 08:26:22;;;;;;;0.15;0.15;;;;;;;17.96;20.94;94481.84;5085823;28;20475;-54
2021/04/09 08:28:49;;;;;;;0.52;0.52;;;;;;;19.38;18.87;94486.38;5085860;28;20116;-57
2021/04/09 08:31:15;;;;;;;0.30;0.30;;;;;;;20.64;16.86;94494.56;5085418;28;20111;-57
2021/04/09 08:33:42;;;;;;;0.73;0.73;;;;;;;19.82;17.72;94492.59;5086162;28;20038;-57
2021/04/09 08:36:07;;;;;;;0.55;0.55;;;;;;;20.54;16.27;94460.88;5086247;28;20028;-57
2021/04/09 08:38:33;;;;;;;0.20;0.20;;;;;;;19.73;17.06;94490.50;5086387;28;20111;-56
2021/04/09 08:41:00;;;;;;;0.75;0.75;;;;;;;19.09;17.78;94483.41;5086399;28;20815;-56
2021/04/09 08:43:25;;;;;;;0.77;0.63;;;;;;;20.09;17.09;94493.28;5077659;28;20471;-55
2021/04/09 08:45:51;;;;;;;0.28;0.28;;;;;;;20.49;16.31;94483.63;5083349;28;20024;-49
2021/04/09 08:48:18;;;;;;;2.55;0.70;;;;;;;21.45;16.69;94481.47;5083518;28;20023;-54
2021/04/09 08:50:43;;;;;;;5.20;1.92;;;;;;;22.14;14.85;94486.94;5077208;28;20035;-55
2021/04/09 08:53:09;;;;;;;0.85;0.85;;;;;;;19.82;16.83;94498.22;5086676;28;20416;-55
2021/04/09 08:55:39;;;;;;;1.55;0.55;;;;;;;18.34;17.76;94489.88;5076724;28;20070;-56
2021/04/09 08:58:15;;;;;;;1.00;1.00;;;;;;;17.44;18.74;94492.09;5086005;28;20556;-55
2021/04/09 09:00:40;;;;;;;0.25;0.25;;;;;;;18.33;17.81;94488.38;5085926;28;20100;-56
2021/04/09 09:03:21;;;;;;;0.10;0.10;;;;;;;18.97;17.73;94482.44;5083518;28;20040;-56
2021/04/09 09:06:00;;;;;;;0.70;0.70;;;;;;;20.28;15.79;94496.16;5081219;28;20032;-52
2021/04/09 09:08:44;;;;;;;0.45;0.45;;;;;;;21.14;15.88;94484.94;5083955;28;20028;-57
2021/04/09 09:11:14;;;;;;;0.08;0.08;;;;;;;21.89;15.69;94485.31;5083082;28;20066;-54
2021/04/09 09:13:41;;;;;;;0.10;0.10;;;;;;;21.76;16.01;94490.69;5083588;28;20461;-54
2021/04/09 09:16:14;;;;;;;0.17;0.17;;;;;;;22.09;16.26;94479.59;5076752;28;20699;-55
2021/04/09 09:18:42;;;;;;;0.40;0.40;;;;;;;22.99;16.77;94482.06;5081881;28;20028;-55
2021/04/09 09:21:09;;;;;;;0.90;0.90;;;;;;;23.17;15.11;94475.50;5083546;28;20066;-56
2021/04/09 09:23:54;;;;;;;0.10;0.10;;;;;;;23.29;14.71;94475.53;5084305;28;20051;-55
2021/04/09 09:26:35;;;;;;;0.60;0.28;;;;;;;22.72;14.31;94487.34;5081165;28;20085;-55
2021/04/09 09:29:22;;;;;;;0.88;0.47;;;;;;;22.76;14.15;94484.78;5079297;28;20020;-53
2021/04/09 09:32:07;;;;;;;0.10;0.10;;;;;;;22.56;14.84;94484.91;5085251;28;20024;-55
2021/04/09 09:34:38;;;;;;;1.20;1.02;;;;;;;22.83;13.75;94484.56;5078520;28;20070;-56
2021/04/09 09:37:15;;;;;;;0.40;0.40;;;;;;;22.32;14.64;94466.41;5082791;28;20030;-51
2021/04/09 09:39:42;;;;;;;0.22;0.22;;;;;;;22.83;13.70;94464.13;5085149;28;20497;-52
2021/04/09 09:42:21;;;;;;;2.78;0.82;;;;;;;23.46;13.36;94475.25;5088755;28;20495;-50
2021/04/09 09:44:52;;;;;;;0.32;0.32;;;;;;;23.67;13.21;94475.16;5089982;28;20012;-54
2021/04/09 09:47:31;;;;;;;0.90;0.50;;;;;;;23.76;12.96;94473.56;5091965;28;20012;-53
2021/04/09 09:50:12;;;;;;;0.80;0.43;;;;;;;22.66;12.63;94472.84;5092316;28;20515;-50
2021/04/09 09:52:52;;;;;;;0.38;0.38;;;;;;;22.86;13.50;94474.91;5092359;28;20412;-52
2021/04/09 09:55:29;;;;;;;2.22;1.45;;;;;;;22.91;15.51;94475.91;5092257;28;20464;-50
2021/04/09 09:57:56;;;;;;;0.22;0.22;;;;;;;22.76;14.52;94470.72;5091745;28;20115;-52
2021/04/09 10:00:29;;;;;;;0.13;0.13;;;;;;;21.96;15.04;94475.19;5092183;28;20027;-53
2021/04/09 10:03:14;;;;;;;1.77;1.25;;;;;;;22.54;15.04;94470.69;5092269;28;20432;-50
2021/04/09 10:05:42;;;;;;;2.10;1.67;;;;;;;22.67;13.83;94468.72;5091356;28;20393;-51
2021/04/09 10:08:07;;;;;;;4.32;1.05;;;;;;;22.86;15.03;94449.56;5091952;28;20065;-52
2021/04/09 10:10:43;;;;;;;0.20;0.20;;;;;;;23.27;14.37;94458.50;5092849;28;20095;-53
2021/04/09 10:13:21;;;;;;;0.73;0.50;;;;;;;22.55;15.31;94457.34;5092688;28;20032;-50
2021/04/09 10:15:49;;;;;;;0.63;0.40;;;;;;;23.29;15.13;94455.81;5093174;28;20040;-49
2021/04/09 10:18:15;;;;;;;0.98;0.77;;;;;;;23.25;13.73;94458.38;5092552;28;20038;-52
2021/04/09 10:20:41;;;;;;;0.10;0.10;;;;;;;22.65;13.33;94460.13;5092556;28;20075;-49
2021/04/09 10:23:06;;;;;;;0.63;0.63;;;;;;;22.78;14.87;94442.69;5092769;28;20060;-50
2021/04/09 10:25:34;;;;;;;0.40;0.40;;;;;;;22.46;13.81;94446.91;5092483;28;20028;-51
2021/04/09 10:27:59;;;;;;;1.20;0.45;;;;;;;22.42;15.12;94444.56;5092520;28;20094;-50
2021/04/09 10:30:29;;;;;;;1.48;0.88;;;;;;;21.93;15.42;94433.50;5076918;28;20036;-49
2021/04/09 10:32:55;;;;;;;2.15;1.55;;;;;;;21.65;15.88;94444.28;5076603;28;20031;-49
2021/04/09 10:35:25;;;;;;;2.67;1.48;;;;;;;22.46;14.08;94439.19;5092509;28;20020;-52
2021/04/09 10:37:51;;;;;;;1.75;0.45;;;;;;;23.86;13.81;94435.44;5092500;28;20024;-51
2021/04/09 10:40:17;;;;;;;0.52;0.28;;;;;;;23.90;12.87;94429.31;5091164;28;20099;-50
2021/04/09 10:42:58;;;;;;;2.85;1.70;;;;;;;23.99;12.40;94437.66;5092126;28;20030;-49
2021/04/09 10:45:24;;;;;;;9.57;1.70;;;;;;;22.35;14.35;94430.72;5092728;28;20032;-50
2021/04/09 10:47:52;;;;;;;0.63;0.63;;;;;;;22.07;14.35;94431.66;5092641;28;20647;-53
2021/04/09 10:50:18;;;;;;;1.17;0.60;;;;;;;21.94;15.01;94424.44;5092712;28;20443;-48
2021/04/09 10:52:43;;;;;;;0.70;0.50;;;;;;;22.05;15.29;94426.59;5092372;28;20024;-52
2021/04/09 10:55:09;;;;;;;0.65;0.38;;;;;;;22.15;16.32;94432.94;5090099;28;20020;-50
2021/04/09 10:57:35;;;;;;;7.50;0.80;;;;;;;21.92;14.73;94432.75;5092141;28;20028;-48
2021/04/09 11:00:02;;;;;;;0.35;0.35;;;;;;;21.56;15.40;94433.06;5091838;28;20488;-49
2021/04/09 11:02:28;;;;;;;0.25;0.22;;;;;;;22.77;12.88;94421.50;5090476;28;20440;-52
2021/04/09 11:04:58;;;;;;;0.45;0.30;;;;;;;21.80;14.47;94420.66;5091459;28;20039;-49
2021/04/09 11:07:59;;;;;;;0.32;0.25;;;;;;;22.07;14.91;94420.41;5091512;28;20031;-48
2021/04/09 11:10:31;;;;;;;0.80;0.80;;;;;;;21.66;15.46;94408.44;5008975;28;20057;-49
2021/04/09 11:12:57;;;;;;;0.20;0.20;;;;;;;21.94;16.21;94413.19;5078288;28;20042;-50
2021/04/09 11:15:22;;;;;;;0.40;0.40;;;;;;;22.13;13.47;94406.75;5091503;28;20141;-51
2021/04/09 11:18:03;;;;;;;0.95;0.95;;;;;;;21.63;15.43;94407.59;5091574;28;20059;-51
2021/04/09 11:20:34;;;;;;;0.25;0.20;;;;;;;22.48;13.76;94413.28;5091756;28;20028;-50
2021/04/09 11:23:15;;;;;;;0.88;0.70;;;;;;;22.42;13.95;94408.00;5091751;28;20023;-50
2021/04/09 11:25:43;;;;;;;1.90;1.70;;;;;;;21.91;14.81;94402.44;5091264;28;20552;-48
2021/04/09 11:28:21;;;;;;;1.08;1.05;;;;;;;21.42;14.48;94404.72;5091795;28;20175;-48
2021/04/09 11:31:04;;;;;;;1.52;1.02;;;;;;;21.42;16.94;94401.91;5090378;28;20079;-48
2021/04/09 11:33:34;;;;;;;0.55;0.52;;;;;;;21.17;16.46;94406.44;5091237;28;20036;-49
2021/04/09 11:36:22;;;;;;;0.82;0.82;;;;;;;20.92;16.17;94393.47;5091533;28;20034;-50
2021/04/09 11:38:48;;;;;;;0.20;0.20;;;;;;;20.77;15.39;94395.88;5091069;28;20047;-50
2021/04/09 11:41:44;;;;;;;0.17;0.17;;;;;;;20.40;15.65;94390.44;5091410;28;20103;-48